SCBA/BBA METAR and TAF weather

Enter ICAO airport designator
Station Type Date Time Source
SCBA METAR 2019/07/17 18:01 UTC NOAA

SCBA 171801Z VRB02KT 2000 -SN SCT003 BKN010 OVC020 00/M01 Q0995


Station Type Date Time Source
SCBA Decoded METAR 2019/07/17 18:01 UTC NOAA

Balmaceda, Chile (SCBA) 45-55S 071-41W 520M
Jul 17, 2019 - 02:01 PM EDT / 2019.07.17 1801 UTC
Wind: Variable at 2 MPH (2 KT):0
Visibility: 1 mile(s):0
Sky conditions: overcast
Weather: light snow
Temperature: 32 F (0 C)
Dew Point: 30 F (-1 C)
Relative Humidity: 92%
Pressure (altimeter): 29.38 in. Hg (0995 hPa)
ob: SCBA 171801Z VRB02KT 2000 -SN SCT003 BKN010 OVC020 00/M01 Q0995
cycle: 18

Station Type Date Time Source
SCBA TAF 2019/07/17 18:05 UTC NOAA

TAF COR SCBA 171755Z 1718/1818 VRB02KT 8000 -SHRASN BKN010 OVC030 TX03/1719Z TNM01/1802Z
TEMPO 1718/1724 31005KT 2000 -RASN SCT003 BKN010 BKN020
BECMG 1800/1802 31015G30KT 9999 NSW BKN040

Example: see airport list